createdAt,value
2022-09-03T00:00:56.716Z,2.20
2022-09-03T00:03:43.402Z,1.98
2022-09-03T00:06:23.304Z,2.30
2022-09-03T00:09:22.468Z,2.10
2022-09-03T00:12:08.681Z,2.10
2022-09-03T00:14:47.849Z,2.13
2022-09-03T00:17:16.731Z,2.17
2022-09-03T00:19:52.188Z,2.13
2022-09-03T00:22:21.858Z,2.47
2022-09-03T00:24:50.080Z,2.30
2022-09-03T00:27:25.112Z,2.50
2022-09-03T00:30:16.941Z,2.08
2022-09-03T00:33:06.914Z,2.42
2022-09-03T00:35:49.621Z,2.40
2022-09-03T00:38:16.798Z,2.50
2022-09-03T00:41:06.895Z,2.95
2022-09-03T00:43:40.125Z,2.70
2022-09-03T00:46:28.854Z,2.50
2022-09-03T00:49:12.350Z,2.55
2022-09-03T00:51:53.929Z,3.28
2022-09-03T00:54:40.847Z,2.60
2022-09-03T00:57:15.618Z,3.13
2022-09-03T00:59:51.919Z,3.05
2022-09-03T01:02:39.767Z,2.85
2022-09-03T01:05:18.886Z,2.70
2022-09-03T01:08:04.888Z,3.08
2022-09-03T01:10:50.809Z,2.78
2022-09-03T01:13:33.017Z,2.63
2022-09-03T01:16:16.244Z,2.50
2022-09-03T01:18:52.095Z,2.45
2022-09-03T01:21:47.542Z,2.47
2022-09-03T01:24:31.648Z,2.17
2022-09-03T01:27:36.443Z,2.40
2022-09-03T01:30:07.930Z,2.38
2022-09-03T01:32:43.854Z,2.28
2022-09-03T01:35:24.217Z,2.50
2022-09-03T01:38:12.828Z,2.40
2022-09-03T01:40:47.889Z,2.60
2022-09-03T01:43:34.120Z,2.60
2022-09-03T01:46:20.093Z,2.50
2022-09-03T01:49:04.486Z,2.90
2022-09-03T01:51:31.858Z,2.45
2022-09-03T01:54:20.750Z,2.70
2022-09-03T01:57:36.910Z,2.50
2022-09-03T02:00:06.913Z,2.60
2022-09-03T02:02:44.350Z,2.55
2022-09-03T02:05:25.900Z,2.30
2022-09-03T02:08:08.762Z,3.10
2022-09-03T02:11:06.890Z,2.78
2022-09-03T02:13:54.906Z,2.30
2022-09-03T02:16:24.313Z,2.20
2022-09-03T02:18:54.507Z,2.40
2022-09-03T02:21:22.709Z,2.60
2022-09-03T02:23:50.022Z,2.55
2022-09-03T02:26:21.439Z,2.67
2022-09-03T02:28:48.877Z,2.30
2022-09-03T02:31:16.144Z,2.53
2022-09-03T02:33:45.582Z,2.33
2022-09-03T02:36:15.183Z,2.83
2022-09-03T02:38:43.351Z,2.67
2022-09-03T02:41:13.326Z,2.42
2022-09-03T02:43:50.398Z,2.60
2022-09-03T02:46:23.431Z,2.58
2022-09-03T02:48:50.671Z,2.80
2022-09-03T02:51:17.858Z,2.85
2022-09-03T02:53:45.074Z,2.88
2022-09-03T02:56:12.508Z,2.80
2022-09-03T02:58:39.710Z,2.80
2022-09-03T03:01:07.006Z,2.83
2022-09-03T03:03:34.650Z,3.00
2022-09-03T03:06:02.819Z,2.55
2022-09-03T03:08:30.394Z,2.30
2022-09-03T03:10:59.213Z,2.65
2022-09-03T03:13:30.001Z,2.50
2022-09-03T03:16:00.961Z,2.85
2022-09-03T03:18:29.721Z,2.67
2022-09-03T03:20:56.928Z,2.53
2022-09-03T03:23:24.127Z,2.60
2022-09-03T03:25:51.292Z,2.58
2022-09-03T03:28:20.227Z,2.83
2022-09-03T03:30:48.895Z,2.72
2022-09-03T03:33:16.231Z,2.63
2022-09-03T03:35:43.601Z,2.90
2022-09-03T03:38:10.862Z,2.90
2022-09-03T03:40:41.083Z,3.10
2022-09-03T03:43:08.317Z,2.85
2022-09-03T03:45:35.540Z,3.00
2022-09-03T03:48:02.995Z,2.83
2022-09-03T03:50:30.206Z,3.00
2022-09-03T03:53:00.623Z,3.10
2022-09-03T03:55:28.904Z,2.90
2022-09-03T03:58:02.123Z,2.83
2022-09-03T04:00:29.658Z,2.75
2022-09-03T04:02:56.954Z,2.80
2022-09-03T04:05:24.237Z,2.70
2022-09-03T04:07:51.396Z,2.92
2022-09-03T04:10:18.569Z,2.95
2022-09-03T04:12:45.744Z,2.97
2022-09-03T04:15:12.978Z,3.00
2022-09-03T04:17:40.175Z,3.20
2022-09-03T04:20:07.566Z,3.10
2022-09-03T04:22:34.734Z,3.05
2022-09-03T04:25:01.915Z,3.00
2022-09-03T04:27:29.086Z,3.10
2022-09-03T04:29:56.356Z,3.53
2022-09-03T04:32:42.058Z,3.03
2022-09-03T04:35:09.443Z,3.13
2022-09-03T04:37:36.691Z,3.30
2022-09-03T04:40:04.773Z,3.13
2022-09-03T04:42:32.005Z,2.95
2022-09-03T04:44:59.182Z,3.25
2022-09-03T04:47:28.023Z,3.20
2022-09-03T04:49:55.224Z,3.00
2022-09-03T04:52:22.392Z,3.20
2022-09-03T04:54:49.832Z,2.90
2022-09-03T04:57:17.003Z,3.25
2022-09-03T04:59:44.985Z,2.83
2022-09-03T05:02:15.651Z,3.10
2022-09-03T05:04:42.966Z,2.97
2022-09-03T05:07:10.106Z,3.30
2022-09-03T05:09:37.323Z,3.10
2022-09-03T05:12:04.701Z,3.13
2022-09-03T05:14:32.686Z,2.92
2022-09-03T05:16:59.905Z,2.78
2022-09-03T05:19:27.202Z,2.95
2022-09-03T05:21:54.437Z,3.13
2022-09-03T05:24:22.014Z,2.92
2022-09-03T05:26:49.179Z,3.22
2022-09-03T05:29:16.419Z,2.90
2022-09-03T05:31:43.835Z,3.22
2022-09-03T05:34:16.411Z,3.25
2022-09-03T05:36:46.918Z,3.15
2022-09-03T05:39:14.076Z,3.28
2022-09-03T05:41:41.261Z,3.28
2022-09-03T05:44:08.451Z,3.65
2022-09-03T05:46:37.731Z,3.80
2022-09-03T05:49:06.070Z,3.78
2022-09-03T05:51:33.812Z,4.00
2022-09-03T05:54:01.755Z,3.78
2022-09-03T05:56:30.391Z,3.72
2022-09-03T05:59:01.039Z,3.58
2022-09-03T06:01:38.829Z,3.70
2022-09-03T06:04:07.729Z,3.58
2022-09-03T06:06:37.056Z,3.10
2022-09-03T06:09:06.191Z,3.40
2022-09-03T06:11:35.273Z,3.72
2022-09-03T06:14:08.042Z,4.00
2022-09-03T06:16:42.578Z,3.67
2022-09-03T06:19:10.799Z,3.50
2022-09-03T06:21:42.707Z,3.38
2022-09-03T06:24:12.073Z,3.70
2022-09-03T06:26:40.015Z,3.65
2022-09-03T06:29:10.651Z,4.13
2022-09-03T06:31:37.946Z,4.00
2022-09-03T06:34:05.998Z,4.32
2022-09-03T06:36:33.630Z,3.42
2022-09-03T06:39:01.378Z,3.55
2022-09-03T06:41:33.184Z,3.42
2022-09-03T06:44:03.064Z,3.53
2022-09-03T06:46:31.913Z,3.65
2022-09-03T06:48:59.151Z,3.38
2022-09-03T06:51:27.587Z,3.97
2022-09-03T06:53:59.417Z,3.42
2022-09-03T06:56:26.973Z,3.83
2022-09-03T06:58:55.842Z,3.17
2022-09-03T07:01:33.359Z,3.70
2022-09-03T07:04:02.088Z,3.33
2022-09-03T07:06:33.946Z,3.65
2022-09-03T07:09:01.172Z,3.58
2022-09-03T07:11:30.672Z,3.60
2022-09-03T07:13:58.077Z,3.20
2022-09-03T07:16:43.786Z,3.30
2022-09-03T07:19:13.255Z,3.30
2022-09-03T07:21:48.900Z,3.03
2022-09-03T07:24:18.069Z,4.15
2022-09-03T07:26:46.423Z,3.70
2022-09-03T07:29:15.786Z,4.40
2022-09-03T07:31:43.496Z,3.90
2022-09-03T07:34:12.533Z,4.60
2022-09-03T07:36:44.066Z,3.90
2022-09-03T07:39:12.105Z,3.55
2022-09-03T07:41:39.630Z,5.18
2022-09-03T07:44:08.375Z,3.50
2022-09-03T07:46:37.103Z,3.83
2022-09-03T07:49:05.197Z,3.60
2022-09-03T07:51:34.019Z,3.83
2022-09-03T07:54:02.654Z,3.90
2022-09-03T07:56:32.469Z,3.60
2022-09-03T07:58:59.861Z,3.53
2022-09-03T08:01:28.516Z,3.35
2022-09-03T08:03:55.999Z,3.65
2022-09-03T08:06:24.866Z,3.80
2022-09-03T08:09:03.520Z,3.50
2022-09-03T08:11:34.597Z,3.65
2022-09-03T08:14:06.544Z,3.60
2022-09-03T08:16:35.942Z,3.80
2022-09-03T08:19:03.458Z,3.38
2022-09-03T08:21:30.647Z,3.67
2022-09-03T08:24:03.952Z,4.00
2022-09-03T08:26:33.151Z,3.78
2022-09-03T08:29:00.614Z,3.80
2022-09-03T08:31:28.239Z,3.50
2022-09-03T08:33:56.977Z,4.00
2022-09-03T08:36:27.711Z,3.88
2022-09-03T08:38:55.363Z,3.70
2022-09-03T08:41:34.035Z,4.75
2022-09-03T08:44:28.656Z,4.38
2022-09-03T08:47:06.750Z,3.75
2022-09-03T08:49:55.186Z,4.20
2022-09-03T08:52:26.254Z,4.75
2022-09-03T08:54:58.295Z,4.53
2022-09-03T08:57:25.466Z,4.60
2022-09-03T08:59:54.756Z,4.53
2022-09-03T09:02:37.309Z,4.38
2022-09-03T09:05:17.809Z,5.68
2022-09-03T09:08:21.282Z,4.38
2022-09-03T09:10:49.439Z,3.80
2022-09-03T09:13:22.876Z,4.18
2022-09-03T09:16:15.394Z,4.33
2022-09-03T09:19:05.405Z,4.68
2022-09-03T09:21:37.082Z,3.88
2022-09-03T09:24:06.884Z,4.05
2022-09-03T09:26:34.112Z,3.72
2022-09-03T09:29:07.755Z,3.60
2022-09-03T09:31:38.395Z,3.35
2022-09-03T09:34:06.991Z,3.55
2022-09-03T09:36:48.478Z,2.90
2022-09-03T09:39:16.249Z,2.80
2022-09-03T09:41:46.566Z,3.45
2022-09-03T09:44:20.502Z,3.00
2022-09-03T09:46:52.694Z,3.10
2022-09-03T09:49:35.156Z,3.05
2022-09-03T09:52:12.280Z,2.60
2022-09-03T09:54:40.799Z,2.55
2022-09-03T09:57:14.454Z,2.40
2022-09-03T09:59:41.914Z,2.70
2022-09-03T10:02:13.736Z,2.60
2022-09-03T10:04:49.910Z,2.40
2022-09-03T10:07:33.506Z,2.40
2022-09-03T10:10:16.938Z,2.05
2022-09-03T10:12:59.095Z,2.28
2022-09-03T10:15:44.047Z,2.30
2022-09-03T10:18:33.306Z,2.30
2022-09-03T10:21:12.796Z,2.50
2022-09-03T10:24:07.279Z,2.30
2022-09-03T10:26:35.126Z,2.13
2022-09-03T10:29:05.637Z,2.38
2022-09-03T10:31:54.013Z,2.08
2022-09-03T10:34:57.147Z,2.30
2022-09-03T10:37:40.929Z,2.10
2022-09-03T10:40:14.338Z,1.80
2022-09-03T10:43:07.053Z,2.00
2022-09-03T10:45:43.970Z,2.03
2022-09-03T10:48:38.312Z,2.25
2022-09-03T10:51:07.629Z,2.05
2022-09-03T10:53:54.658Z,2.03
2022-09-03T10:56:44.396Z,2.10
2022-09-03T10:59:20.667Z,1.92
2022-09-03T11:02:06.624Z,1.70
2022-09-03T11:04:55.705Z,2.00
2022-09-03T11:07:25.603Z,1.92
2022-09-03T11:10:03.924Z,1.58
2022-09-03T11:12:56.229Z,1.90
2022-09-03T11:15:42.553Z,1.85
2022-09-03T11:18:21.247Z,1.70
2022-09-03T11:20:49.527Z,1.67
2022-09-03T11:23:16.808Z,1.90
2022-09-03T11:25:53.632Z,1.70
2022-09-03T11:28:45.445Z,1.70
2022-09-03T11:31:18.878Z,1.70
2022-09-03T11:33:56.379Z,1.77
2022-09-03T11:36:32.574Z,1.90
2022-09-03T11:39:00.540Z,1.63
2022-09-03T11:41:29.134Z,2.00
2022-09-03T11:43:57.580Z,2.05
2022-09-03T11:46:28.826Z,1.83
2022-09-03T11:49:17.330Z,1.90
2022-09-03T11:51:44.964Z,1.88
2022-09-03T11:54:23.660Z,1.73
2022-09-03T11:56:51.234Z,1.88
2022-09-03T11:59:20.515Z,1.85
2022-09-03T12:01:53.096Z,1.80
2022-09-03T12:04:48.892Z,1.80
2022-09-03T12:07:42.254Z,1.88
2022-09-03T12:10:09.648Z,1.40
2022-09-03T12:12:48.826Z,1.73
2022-09-03T12:15:32.933Z,1.63
2022-09-03T12:18:19.375Z,1.80
2022-09-03T12:20:47.836Z,1.98
2022-09-03T12:23:25.699Z,1.80
2022-09-03T12:25:53.039Z,1.73
2022-09-03T12:28:23.363Z,1.80
2022-09-03T12:30:53.605Z,1.92
2022-09-03T12:33:21.843Z,1.90
2022-09-03T12:35:59.871Z,1.75
2022-09-03T12:38:29.356Z,1.90
2022-09-03T12:43:51.567Z,1.80
2022-09-03T12:46:21.009Z,1.80
2022-09-03T12:52:20.398Z,1.70
2022-09-03T12:54:54.496Z,1.70
2022-09-03T12:57:49.667Z,2.10
2022-09-03T13:00:18.311Z,1.90
2022-09-03T13:03:00.575Z,2.42
2022-09-03T13:05:44.522Z,2.00
2022-09-03T13:08:18.631Z,2.30
2022-09-03T13:10:45.911Z,2.30
2022-09-03T13:13:18.447Z,2.17
2022-09-03T13:16:04.021Z,1.70
2022-09-03T13:18:57.061Z,2.13
2022-09-03T13:21:27.215Z,2.00
2022-09-03T13:24:26.203Z,1.88
2022-09-03T13:27:30.390Z,2.05
2022-09-03T13:30:17.255Z,1.90
2022-09-03T13:32:54.487Z,2.08
2022-09-03T13:35:27.617Z,2.13
2022-09-03T13:38:14.234Z,2.05
2022-09-03T13:41:14.938Z,2.10
2022-09-03T13:43:43.451Z,2.10
2022-09-03T13:46:28.302Z,2.10
2022-09-03T13:49:25.617Z,1.90
2022-09-03T13:51:57.192Z,1.67
2022-09-03T13:57:32.616Z,2.10
2022-09-03T14:00:04.838Z,2.08
2022-09-03T14:02:53.067Z,2.28
2022-09-03T14:05:23.916Z,1.70
2022-09-03T14:08:02.035Z,2.08
2022-09-03T14:10:39.366Z,2.10
2022-09-03T14:13:49.354Z,1.90
2022-09-03T14:16:55.174Z,1.85
2022-09-03T14:19:55.239Z,1.77
2022-09-03T14:22:23.386Z,1.80
2022-09-03T14:24:58.411Z,1.85
2022-09-03T14:27:27.465Z,2.05
2022-09-03T14:30:06.349Z,2.90
2022-09-03T14:32:43.243Z,2.60
2022-09-03T14:35:23.053Z,2.75
2022-09-03T14:38:00.898Z,2.58
2022-09-03T14:40:40.904Z,2.20
2022-09-03T14:43:42.038Z,2.28
2022-09-03T14:46:33.447Z,2.28
2022-09-03T14:49:09.456Z,2.05
2022-09-03T14:52:12.600Z,2.15
2022-09-03T14:54:57.873Z,2.00
2022-09-03T14:57:44.026Z,2.20
2022-09-03T15:00:19.749Z,1.90
2022-09-03T15:02:55.935Z,1.90
2022-09-03T15:05:43.402Z,2.00
2022-09-03T15:08:28.911Z,1.88
2022-09-03T15:14:06.261Z,2.15
2022-09-03T15:17:03.667Z,2.30
2022-09-03T15:19:45.922Z,2.20
2022-09-03T15:22:14.616Z,2.15
2022-09-03T15:25:16.750Z,2.20
2022-09-03T15:27:53.199Z,2.42
2022-09-03T15:30:21.252Z,2.17
2022-09-03T15:33:03.466Z,2.67
2022-09-03T15:35:45.458Z,2.90
2022-09-03T15:38:31.469Z,2.42
2022-09-03T15:41:03.089Z,2.33
2022-09-03T15:43:33.830Z,2.10
2022-09-03T15:46:25.592Z,2.15
2022-09-03T15:49:05.670Z,2.50
2022-09-03T15:51:41.093Z,2.63
2022-09-03T15:54:13.219Z,2.25
2022-09-03T15:56:52.938Z,2.00
2022-09-03T15:59:25.098Z,2.58
2022-09-03T16:02:15.135Z,2.20
2022-09-03T16:05:19.476Z,2.40
2022-09-03T16:07:56.179Z,2.38
2022-09-03T16:10:25.001Z,2.42
2022-09-03T16:12:58.903Z,2.28
2022-09-03T16:15:50.231Z,1.83
2022-09-03T16:18:30.620Z,2.05
2022-09-03T16:21:08.714Z,2.42
2022-09-03T16:24:03.435Z,2.22
2022-09-03T16:26:43.897Z,2.00
2022-09-03T16:29:15.970Z,2.28
2022-09-03T16:31:50.162Z,2.22
2022-09-03T16:34:36.381Z,2.40
2022-09-03T16:37:17.646Z,2.38
2022-09-03T16:40:00.847Z,1.90
2022-09-03T16:43:10.106Z,1.90
2022-09-03T16:46:15.690Z,2.10
2022-09-03T16:49:03.800Z,2.03
2022-09-03T16:51:56.192Z,2.00
2022-09-03T16:54:57.358Z,2.65
2022-09-03T16:57:42.108Z,2.30
2022-09-03T17:00:17.449Z,2.17
2022-09-03T17:03:26.330Z,2.22
2022-09-03T17:06:02.021Z,2.08
2022-09-03T17:08:45.866Z,2.13
2022-09-03T17:11:39.489Z,2.47
2022-09-03T17:14:34.629Z,2.33
2022-09-03T17:17:16.934Z,2.45
2022-09-03T17:20:15.496Z,2.40
2022-09-03T17:23:05.983Z,2.22
2022-09-03T17:25:49.640Z,2.15
2022-09-03T17:28:35.389Z,2.28
2022-09-03T17:31:10.030Z,2.20
2022-09-03T17:33:49.000Z,2.22
2022-09-03T17:36:23.941Z,2.65
2022-09-03T17:39:11.229Z,2.70
2022-09-03T17:41:54.340Z,2.50
2022-09-03T17:44:56.174Z,2.10
2022-09-03T17:47:41.643Z,2.30
2022-09-03T17:50:25.193Z,1.85
2022-09-03T17:52:55.692Z,2.20
2022-09-03T17:55:32.448Z,1.70
2022-09-03T17:58:28.030Z,1.83
2022-09-03T18:01:10.860Z,1.83
2022-09-03T18:04:02.179Z,1.83
2022-09-03T18:06:55.616Z,2.00
2022-09-03T18:09:47.713Z,1.52
2022-09-03T18:12:22.581Z,1.80
2022-09-03T18:14:57.054Z,1.95
2022-09-03T18:17:33.834Z,1.85
2022-09-03T18:20:24.602Z,1.80
2022-09-03T18:23:49.789Z,1.70
2022-09-03T18:26:41.142Z,2.00
2022-09-03T18:29:54.453Z,1.85
2022-09-03T18:32:40.984Z,1.77
2022-09-03T18:35:27.787Z,1.73
2022-09-03T18:38:24.852Z,1.73
2022-09-03T18:41:23.526Z,1.80
2022-09-03T18:44:34.961Z,1.90
2022-09-03T18:48:01.863Z,1.80
2022-09-03T18:51:01.561Z,1.75
2022-09-03T18:54:02.649Z,1.85
2022-09-03T18:57:14.911Z,1.92
2022-09-03T19:00:28.782Z,1.75
2022-09-03T19:03:41.403Z,1.52
2022-09-03T19:06:37.851Z,1.80
2022-09-03T19:09:43.693Z,1.65
2022-09-03T19:12:43.974Z,1.52
2022-09-03T19:15:46.371Z,1.70
2022-09-03T19:18:32.391Z,1.70
2022-09-03T19:21:37.222Z,1.73
2022-09-03T19:24:23.674Z,1.80
2022-09-03T19:27:46.064Z,1.90
2022-09-03T19:30:27.722Z,1.77
2022-09-03T19:33:30.442Z,1.80
2022-09-03T19:36:36.345Z,1.73
2022-09-03T19:39:30.149Z,1.80
2022-09-03T19:42:44.717Z,1.95
2022-09-03T19:45:44.579Z,2.15
2022-09-03T19:48:54.632Z,2.00
2022-09-03T19:51:44.616Z,2.17
2022-09-03T19:54:31.119Z,2.13
2022-09-03T19:57:17.421Z,2.20
2022-09-03T20:00:04.782Z,2.22
2022-09-03T20:03:01.503Z,2.08
2022-09-03T20:05:48.983Z,2.10
2022-09-03T20:08:35.924Z,2.10
2022-09-03T20:11:11.664Z,2.00
2022-09-03T20:14:02.592Z,1.90
2022-09-03T20:16:59.685Z,2.50
2022-09-03T20:19:30.814Z,2.10
2022-09-03T20:22:03.601Z,1.92
2022-09-03T20:25:12.203Z,1.98
2022-09-03T20:27:56.968Z,1.90
2022-09-03T20:30:33.961Z,1.90
2022-09-03T20:33:07.287Z,2.10
2022-09-03T20:35:55.423Z,2.10
2022-09-03T20:38:42.382Z,2.00
2022-09-03T20:41:35.083Z,1.92
2022-09-03T20:44:13.630Z,1.88
2022-09-03T20:46:56.034Z,1.95
2022-09-03T20:49:42.802Z,1.90
2022-09-03T20:52:14.344Z,2.15
2022-09-03T20:54:47.444Z,1.80
2022-09-03T20:57:22.103Z,2.00
2022-09-03T21:00:05.853Z,2.00
2022-09-03T21:03:00.156Z,1.90
2022-09-03T21:05:52.991Z,1.90
2022-09-03T21:08:56.109Z,2.13
2022-09-03T21:11:44.001Z,2.13
2022-09-03T21:14:31.674Z,2.25
2022-09-03T21:17:44.043Z,1.98
2022-09-03T21:20:22.765Z,2.30
2022-09-03T21:23:05.686Z,2.30
2022-09-03T21:25:43.827Z,2.35
2022-09-03T21:28:33.833Z,2.83
2022-09-03T21:31:06.865Z,2.13
2022-09-03T21:33:39.045Z,2.20
2022-09-03T21:36:25.945Z,2.30
2022-09-03T21:39:03.354Z,2.35
2022-09-03T21:41:45.233Z,2.53
2022-09-03T21:44:37.604Z,2.47
2022-09-03T21:47:12.292Z,2.40
2022-09-03T21:50:04.010Z,2.25
2022-09-03T21:52:49.827Z,2.47
2022-09-03T21:55:22.793Z,1.98
2022-09-03T21:57:58.445Z,2.60
2022-09-03T22:00:32.606Z,2.10
2022-09-03T22:03:01.930Z,2.33
2022-09-03T22:05:48.204Z,2.25
2022-09-03T22:08:20.555Z,2.30
2022-09-03T22:10:57.575Z,2.05
2022-09-03T22:13:44.263Z,2.03
2022-09-03T22:16:31.825Z,2.22
2022-09-03T22:18:59.801Z,2.10
2022-09-03T22:21:32.915Z,2.15
2022-09-03T22:24:23.344Z,2.03
2022-09-03T22:26:53.722Z,2.20
2022-09-03T22:29:39.855Z,2.00
2022-09-03T22:32:25.120Z,2.10
2022-09-03T22:35:23.496Z,1.80
2022-09-03T22:37:59.470Z,1.90
2022-09-03T22:40:43.690Z,1.70
2022-09-03T22:43:35.190Z,2.00
2022-09-03T22:46:18.503Z,2.08
2022-09-03T22:49:06.490Z,1.95
2022-09-03T22:51:58.723Z,2.08
2022-09-03T22:54:51.094Z,1.90
2022-09-03T22:57:21.080Z,1.70
2022-09-03T23:00:02.334Z,1.88
2022-09-03T23:02:32.787Z,1.80
2022-09-03T23:05:09.376Z,1.80
2022-09-03T23:07:49.362Z,2.00
2022-09-03T23:10:25.435Z,1.67
2022-09-03T23:13:08.159Z,1.70
2022-09-03T23:15:37.443Z,1.63
2022-09-03T23:18:24.215Z,1.60
2022-09-03T23:21:06.015Z,1.50
2022-09-03T23:23:42.614Z,1.65
2022-09-03T23:26:38.543Z,1.67
2022-09-03T23:29:26.061Z,1.50
2022-09-03T23:31:57.267Z,1.45
2022-09-03T23:34:25.517Z,1.90
2022-09-03T23:37:33.056Z,1.67
2022-09-03T23:40:29.483Z,1.58
2022-09-03T23:43:28.136Z,1.60
2022-09-03T23:46:20.698Z,1.90
2022-09-03T23:49:00.290Z,1.80
2022-09-03T23:51:57.540Z,1.83
2022-09-03T23:54:25.066Z,1.85
2022-09-03T23:57:18.464Z,1.50
2022-09-03T23:59:59.303Z,1.73
